Time;durP1;ratioP1;P1;durP2;ratioP2;P2;SDS_P1;SDS_P2;PMS_P1;PMS_P2;Temp;Humidity;BMP_temperature;BMP_pressure;BME280_temperature;BME280_humidity;BME280_pressure;Samples;Min_cycle;Max_cycle;Signal;HPM_P1;HPM_P2
2021/12/13 00:01:15;;;;;;;303.42;97.33;;;;;;;-5.32;75.22;99312.94;1675613;85;25782;-60
2021/12/13 00:04:05;;;;;;;311.73;100.30;;;;;;;-5.28;75.38;99318.20;1675046;83;25679;-60
2021/12/13 00:06:37;;;;;;;280.40;95.03;;;;;;;-5.19;75.37;99331.73;1675750;85;28523;-61
2021/12/13 00:09:14;;;;;;;299.05;95.77;;;;;;;-5.10;75.42;99326.27;1675842;85;25619;-59
2021/12/13 00:11:46;;;;;;;280.10;89.40;;;;;;;-5.05;75.10;99327.83;1675624;85;25731;-59
2021/12/13 00:14:20;;;;;;;316.42;101.25;;;;;;;-5.04;74.74;99326.30;1675919;85;25768;-60
2021/12/13 00:17:13;;;;;;;304.00;95.65;;;;;;;-5.10;74.31;99333.75;1674960;85;25669;-61
2021/12/13 00:19:44;;;;;;;332.45;103.17;;;;;;;-5.19;74.32;99334.41;1666047;85;27571;-60
2021/12/13 00:22:16;;;;;;;333.15;107.17;;;;;;;-5.23;74.62;99336.33;1665844;86;25642;-60
2021/12/13 00:24:46;;;;;;;313.43;101.75;;;;;;;-5.25;74.48;99343.20;1666441;86;25865;-60
2021/12/13 00:27:21;;;;;;;325.43;104.23;;;;;;;-5.35;74.40;99345.37;1666528;86;25658;-65
2021/12/13 00:30:11;;;;;;;331.60;106.32;;;;;;;-5.34;74.77;99353.20;1665954;86;25670;-60
2021/12/13 00:33:21;;;;;;;324.92;105.43;;;;;;;-5.33;74.81;99348.69;1643282;86;27541;-64
2021/12/13 00:36:01;;;;;;;288.87;97.60;;;;;;;-5.26;74.80;99342.89;1666124;86;25765;-66
2021/12/13 00:38:31;;;;;;;288.32;96.50;;;;;;;-5.26;74.71;99326.86;1665817;86;25821;-62
2021/12/13 00:41:08;;;;;;;280.45;92.35;;;;;;;-5.30;74.84;99329.58;1666104;86;25473;-64
2021/12/13 00:43:50;;;;;;;260.45;88.15;;;;;;;-5.30;74.79;99333.09;1678235;84;25734;-64
2021/12/13 00:46:18;;;;;;;;;;;;;;;-5.29;75.03;99344.61;1697459;84;28216;-65
2021/12/13 00:48:49;;;;;;;241.25;74.47;;;;;;;-5.30;75.22;99343.77;1694316;84;26084;-64
2021/12/13 00:51:25;;;;;;;236.15;75.78;;;;;;;-5.30;75.41;99341.10;1694755;84;25647;-63
2021/12/13 00:53:55;;;;;;;218.07;71.20;;;;;;;-5.31;75.66;99331.94;1694240;84;26916;-62
2021/12/13 00:56:47;;;;;;;219.47;72.20;;;;;;;-5.32;75.91;99327.09;1693447;84;25448;-63
2021/12/13 00:59:24;;;;;;;236.65;76.53;;;;;;;-5.34;76.01;99325.64;1694636;84;27560;-62
2021/12/13 01:02:14;;;;;;;232.55;78.07;;;;;;;-5.30;76.27;99325.56;1694061;84;25654;-64
2021/12/13 01:05:06;;;;;;;221.53;72.67;;;;;;;-5.24;76.03;99336.83;1694454;84;25765;-64
2021/12/13 01:08:06;;;;;;;229.60;75.28;;;;;;;-5.25;75.77;99322.31;1694279;84;25768;-64
2021/12/13 01:11:13;;;;;;;222.50;73.42;;;;;;;-5.26;75.93;99331.36;1694289;84;25524;-62
2021/12/13 01:14:03;;;;;;;224.45;73.55;;;;;;;-5.32;75.88;99335.64;1694465;84;27503;-64
2021/12/13 01:16:48;;;;;;;236.68;76.12;;;;;;;-5.36;75.95;99337.05;1693211;84;27245;-63
2021/12/13 01:22:27;;;;;;;232.55;76.62;;;;;;;-5.38;75.60;99350.60;1689396;84;25609;-66
2021/12/13 01:25:15;;;;;;;213.03;71.37;;;;;;;-5.40;75.80;99352.63;1685461;84;25749;-60
2021/12/13 01:27:35;;;;;;;211.97;68.83;;;;;;;-5.46;75.86;99348.89;1658972;84;25966;-61
2021/12/13 01:30:09;;;;;;;225.07;71.10;;;;;;;-5.44;76.02;99346.02;1690133;84;25777;-60
2021/12/13 01:32:40;;;;;;;228.02;71.87;;;;;;;-5.44;76.12;99339.34;1689960;84;25610;-60
2021/12/13 01:35:15;;;;;;;202.45;65.55;;;;;;;-5.40;76.04;99339.27;1689794;84;26286;-60
2021/12/13 01:37:47;;;;;;;186.47;64.37;;;;;;;-5.39;76.16;99334.77;1690223;84;25595;-60
2021/12/13 01:40:13;;;;;;;207.15;67.27;;;;;;;-5.42;76.12;99331.45;1688981;84;26258;-60
2021/12/13 01:42:40;;;;;;;181.05;61.45;;;;;;;-5.45;76.18;99329.66;1689873;84;25833;-61
2021/12/13 01:45:12;;;;;;;207.20;66.67;;;;;;;-5.48;76.39;99320.69;1689541;84;25615;-60
2021/12/13 01:47:44;;;;;;;187.55;61.95;;;;;;;-5.49;76.55;99323.89;1689421;84;27829;-60
2021/12/13 01:50:22;;;;;;;195.35;62.38;;;;;;;-5.45;76.59;99330.49;1690142;84;25618;-64
2021/12/13 01:52:52;;;;;;;182.93;65.95;;;;;;;-5.43;76.54;99328.47;1689726;84;27455;-65
2021/12/13 01:55:37;;;;;;;185.45;62.53;;;;;;;-5.40;76.28;99323.24;1690023;84;25687;-65
2021/12/13 02:01:10;;;;;;;188.72;61.30;;;;;;;-5.51;75.90;99322.41;1689755;84;25516;-64
2021/12/13 02:04:02;;;;;;;185.75;62.60;;;;;;;-5.54;75.95;99313.78;1690136;84;25425;-63
2021/12/13 02:06:36;;;;;;;177.82;59.67;;;;;;;-5.57;75.92;99314.66;1653969;86;29517;-65
2021/12/13 02:09:11;;;;;;;180.80;61.90;;;;;;;-5.60;76.06;99318.55;1683105;85;25808;-64
2021/12/13 02:11:40;;;;;;;204.65;64.65;;;;;;;-5.56;76.20;99325.16;1682622;85;25571;-62
2021/12/13 02:14:13;;;;;;;184.18;63.15;;;;;;;-5.51;75.95;99321.91;1682725;85;25667;-64
2021/12/13 02:16:58;;;;;;;191.73;63.55;;;;;;;-5.54;75.92;99312.95;1682529;85;25716;-63
2021/12/13 02:19:34;;;;;;;200.45;62.88;;;;;;;-5.47;76.23;99320.50;1680767;85;26827;-63
2021/12/13 02:22:25;;;;;;;186.82;62.25;;;;;;;-5.32;76.13;99316.94;1668809;85;25762;-61
2021/12/13 02:24:56;;;;;;;169.50;57.83;;;;;;;-5.41;75.69;99307.71;1671145;85;25598;-64
2021/12/13 02:27:32;;;;;;;185.73;60.63;;;;;;;-5.48;75.86;99310.00;1669083;85;26451;-60
2021/12/13 02:30:04;;;;;;;166.35;59.40;;;;;;;-5.52;76.17;99310.92;1680046;85;25756;-63
2021/12/13 02:32:35;;;;;;;198.28;64.67;;;;;;;-5.54;76.20;99311.11;1679952;85;28263;-63
2021/12/13 02:34:59;;;;;;;184.82;62.17;;;;;;;-5.55;75.99;99315.30;1668398;85;25729;-63
2021/12/13 02:37:29;;;;;;;187.12;60.17;;;;;;;-5.57;75.63;99316.84;1668779;85;25814;-60
2021/12/13 02:39:59;;;;;;;184.28;60.15;;;;;;;-5.70;75.48;99319.38;1673724;84;25830;-60
2021/12/13 02:42:28;;;;;;;162.57;54.35;;;;;;;-5.81;75.44;99311.37;1696121;84;25459;-65
2021/12/13 02:45:01;;;;;;;181.32;57.73;;;;;;;-5.93;75.49;99312.38;1685592;85;28033;-62
2021/12/13 02:47:36;;;;;;;184.48;59.00;;;;;;;-6.00;75.60;99310.96;1695992;84;25739;-64
2021/12/13 02:50:07;;;;;;;179.23;55.60;;;;;;;-6.09;75.76;99315.63;1685005;84;25789;-59
2021/12/13 02:52:34;;;;;;;173.25;60.05;;;;;;;-6.16;75.83;99324.07;1695796;84;25706;-59
2021/12/13 02:55:06;;;;;;;174.25;57.08;;;;;;;-6.20;75.97;99328.11;1685235;85;25493;-60
2021/12/13 02:57:37;;;;;;;183.72;59.05;;;;;;;-6.20;76.00;99326.28;1674839;84;28252;-61
2021/12/13 03:00:27;;;;;;;201.07;60.28;;;;;;;-6.14;76.26;99323.88;1685318;84;25774;-60
2021/12/13 03:02:58;;;;;;;182.97;58.20;;;;;;;-6.09;76.06;99327.64;1695565;84;25435;-60
2021/12/13 03:05:30;;;;;;;182.90;55.05;;;;;;;-6.09;75.98;99323.63;1685526;85;34690;-59
2021/12/13 03:08:01;;;;;;;187.22;59.00;;;;;;;-6.08;76.00;99317.27;1695717;84;25694;-59
2021/12/13 03:10:36;;;;;;;178.70;58.52;;;;;;;-6.07;75.99;99308.77;1685317;84;27470;-60
2021/12/13 03:13:03;;;;;;;193.28;63.45;;;;;;;-6.06;76.12;99312.58;1695979;84;25596;-63
2021/12/13 03:15:32;;;;;;;196.32;61.48;;;;;;;-5.96;76.16;99311.42;1685502;84;25626;-63
2021/12/13 03:18:15;;;;;;;164.67;53.23;;;;;;;-5.96;75.75;99314.90;1695950;84;25771;-66
2021/12/13 03:20:47;;;;;;;134.47;47.80;;;;;;;-6.00;76.05;99319.47;1683396;84;25750;-65
2021/12/13 03:23:48;;;;;;;147.53;50.33;;;;;;;-6.00;76.45;99318.13;1685194;84;27440;-63
2021/12/13 03:26:36;;;;;;;172.10;55.70;;;;;;;-6.04;76.72;99317.17;1685108;85;27550;-66
2021/12/13 03:29:23;;;;;;;181.80;60.30;;;;;;;-6.01;76.47;99328.50;1695762;84;25624;-64
2021/12/13 03:31:54;;;;;;;188.18;62.85;;;;;;;-6.03;76.28;99334.02;1680025;84;27868;-64
2021/12/13 03:34:30;;;;;;;171.25;58.33;;;;;;;-6.14;76.17;99330.03;1696128;84;25436;-66
2021/12/13 03:37:10;;;;;;;172.40;59.40;;;;;;;-6.17;76.27;99329.06;1694701;84;28619;-64
2021/12/13 03:39:42;;;;;;;170.37;60.73;;;;;;;-6.09;76.47;99330.80;1685391;85;25429;-63
2021/12/13 03:42:16;;;;;;;165.92;57.65;;;;;;;-6.04;76.21;99321.73;1696130;84;25442;-66
2021/12/13 03:44:47;;;;;;;170.90;53.80;;;;;;;-5.99;76.02;99325.14;1694105;84;25730;-66
2021/12/13 03:47:21;;;;;;;169.85;59.38;;;;;;;-5.97;75.89;99321.27;1667661;85;25709;-65
2021/12/13 03:49:53;;;;;;;157.35;54.10;;;;;;;-6.04;75.51;99333.19;1685178;85;27478;-67
2021/12/13 03:52:24;;;;;;;159.25;52.83;;;;;;;-6.09;75.59;99334.80;1694670;84;25753;-66
2021/12/13 03:54:53;;;;;;;156.65;54.60;;;;;;;-6.11;75.99;99325.66;1685570;85;34874;-60
2021/12/13 03:57:20;;;;;;;148.57;51.33;;;;;;;-5.98;76.40;99322.29;1695584;84;27851;-62
2021/12/13 03:59:48;;;;;;;163.55;53.70;;;;;;;-5.93;76.02;99333.20;1685143;85;25587;-64
2021/12/13 04:02:20;;;;;;;152.38;54.93;;;;;;;-5.86;76.04;99330.63;1695593;84;27447;-66
2021/12/13 04:04:51;;;;;;;171.15;53.68;;;;;;;-5.75;76.17;99329.80;1685441;85;25896;-64
2021/12/13 04:07:28;;;;;;;159.27;55.17;;;;;;;-5.82;75.26;99329.72;1695624;84;25678;-63
2021/12/13 04:09:58;;;;;;;167.05;57.20;;;;;;;-5.84;75.85;99334.44;1685341;84;26979;-65
2021/12/13 04:12:34;;;;;;;162.88;56.23;;;;;;;-5.74;75.81;99330.10;1696080;84;25229;-62
2021/12/13 04:15:02;;;;;;;172.60;56.35;;;;;;;-5.81;75.36;99337.53;1684643;84;25718;-60
2021/12/13 04:18:00;;;;;;;162.68;54.23;;;;;;;-5.77;75.49;99343.83;1695076;84;25633;-61
2021/12/13 04:20:11;;;;;;;164.52;56.75;;;;;;;-5.79;75.52;99337.34;1666114;85;25875;-60
2021/12/13 04:22:42;;;;;;;176.07;57.10;;;;;;;-5.77;75.49;99339.33;1681167;84;25830;-60
2021/12/13 04:25:14;;;;;;;179.20;58.87;;;;;;;-5.74;75.85;99340.78;1685019;84;25613;-60
2021/12/13 04:28:06;;;;;;;172.20;59.53;;;;;;;-5.64;75.68;99343.16;1685142;84;27455;-60
2021/12/13 04:30:41;;;;;;;192.53;65.10;;;;;;;-5.64;75.49;99343.16;1685471;84;25943;-60
2021/12/13 04:33:12;;;;;;;186.85;67.40;;;;;;;-5.57;75.86;99344.04;1685152;85;25715;-60
2021/12/13 04:35:42;;;;;;;173.80;61.73;;;;;;;-5.44;75.97;99352.17;1685430;85;25749;-67
2021/12/13 04:38:08;;;;;;;191.90;66.87;;;;;;;-5.30;75.52;99350.95;1685169;85;25469;-66
2021/12/13 04:40:39;;;;;;;185.15;62.80;;;;;;;-5.21;75.50;99355.14;1685548;85;27456;-66
2021/12/13 04:43:10;;;;;;;187.27;65.92;;;;;;;-5.11;75.16;99350.81;1685215;85;27190;-65
2021/12/13 04:45:45;;;;;;;203.65;67.22;;;;;;;-4.96;75.61;99351.22;1685644;85;25412;-66
2021/12/13 04:48:18;;;;;;;210.88;69.75;;;;;;;-4.82;75.45;99342.78;1684632;84;25798;-65
2021/12/13 04:50:59;;;;;;;199.68;64.87;;;;;;;-4.70;75.06;99351.92;1685448;84;25611;-64
2021/12/13 04:53:31;;;;;;;193.70;62.60;;;;;;;-4.75;75.01;99346.86;1684238;84;26563;-63
2021/12/13 04:56:02;;;;;;;183.90;62.53;;;;;;;-4.77;75.33;99341.70;1685416;85;25479;-64
2021/12/13 04:58:29;;;;;;;187.68;62.50;;;;;;;-4.79;75.26;99339.72;1685140;84;25646;-67
2021/12/13 05:01:00;;;;;;;184.13;59.25;;;;;;;-4.79;75.32;99335.71;1685103;84;25810;-62
2021/12/13 05:03:31;;;;;;;165.28;59.05;;;;;;;-4.83;75.68;99324.59;1685667;84;25423;-63
2021/12/13 05:06:02;;;;;;;171.57;59.27;;;;;;;-4.85;75.96;99330.64;1684875;84;27393;-65
2021/12/13 05:08:29;;;;;;;147.68;53.68;;;;;;;-4.79;76.30;99337.88;1684533;84;25468;-62
2021/12/13 05:10:55;;;;;;;138.52;50.92;;;;;;;-4.77;76.45;99332.34;1685531;85;25649;-61
2021/12/13 05:13:26;;;;;;;165.68;56.13;;;;;;;-4.74;76.47;99341.81;1685124;85;25760;-66
2021/12/13 05:16:09;;;;;;;192.03;62.73;;;;;;;-4.76;76.64;99343.34;1685502;84;25416;-65
2021/12/13 05:18:46;;;;;;;232.22;70.12;;;;;;;-4.70;77.00;99342.56;1685507;84;25862;-64
2021/12/13 05:21:18;;;;;;;213.77;66.82;;;;;;;-4.58;76.69;99350.05;1697938;84;25495;-65
2021/12/13 05:23:52;;;;;;;227.22;68.02;;;;;;;-4.51;76.60;99345.55;1694365;84;25626;-62
2021/12/13 05:26:36;;;;;;;212.72;70.03;;;;;;;-4.45;76.47;99350.12;1696015;84;27913;-65
2021/12/13 05:29:07;;;;;;;212.02;68.65;;;;;;;-4.34;76.61;99350.58;1687029;84;25774;-64
2021/12/13 05:31:33;;;;;;;212.10;69.53;;;;;;;-4.24;76.64;99351.03;1694715;84;27392;-63
2021/12/13 05:34:05;;;;;;;177.85;58.85;;;;;;;-4.07;76.80;99348.84;1697479;84;25681;-65
2021/12/13 05:36:35;;;;;;;170.45;57.80;;;;;;;-3.96;76.44;99358.65;1697609;84;25500;-62
2021/12/13 05:39:16;;;;;;;130.43;46.53;;;;;;;-3.88;76.41;99363.00;1698032;84;26353;-60
2021/12/13 05:41:56;;;;;;;148.43;47.75;;;;;;;-3.82;76.30;99372.41;1697852;84;25653;-62
2021/12/13 05:44:28;;;;;;;120.37;42.40;;;;;;;-3.80;76.23;99371.68;1697708;84;29558;-61
2021/12/13 05:46:56;;;;;;;117.67;42.33;;;;;;;-3.79;76.32;99377.37;1697183;84;25487;-60
2021/12/13 05:49:32;;;;;;;149.32;52.15;;;;;;;-3.78;76.34;99374.16;1697953;84;25665;-59
2021/12/13 05:52:17;;;;;;;141.60;51.37;;;;;;;-3.73;76.44;99373.55;1697640;84;25685;-60
2021/12/13 05:54:48;;;;;;;145.10;48.85;;;;;;;-3.60;76.68;99374.11;1696781;84;25721;-59
2021/12/13 05:57:25;;;;;;;114.05;42.10;;;;;;;-3.56;76.47;99370.83;1697058;84;27544;-65
2021/12/13 05:59:59;;;;;;;129.32;44.93;;;;;;;-3.60;76.30;99366.08;1697884;84;25738;-64
2021/12/13 06:02:40;;;;;;;135.03;51.10;;;;;;;-3.66;76.45;99370.38;1697858;84;25780;-62
2021/12/13 06:05:21;;;;;;;131.05;46.50;;;;;;;-3.67;76.58;99373.58;1697761;84;26196;-65
2021/12/13 06:07:55;;;;;;;147.00;54.03;;;;;;;-3.68;76.81;99380.48;1697687;84;25439;-62
2021/12/13 06:10:25;;;;;;;147.37;53.87;;;;;;;-3.66;77.01;99384.60;1698049;84;27435;-64
2021/12/13 06:12:56;;;;;;;146.57;55.83;;;;;;;-3.62;77.04;99379.67;1698364;84;25605;-65
2021/12/13 06:15:42;;;;;;;150.72;55.23;;;;;;;-3.58;77.06;99388.95;1697907;84;25820;-62
2021/12/13 06:18:17;;;;;;;146.15;54.48;;;;;;;-3.50;77.15;99383.92;1697840;84;26112;-64
2021/12/13 06:20:57;;;;;;;141.22;52.75;;;;;;;-3.44;76.99;99380.44;1689335;83;25681;-65
2021/12/13 06:23:28;;;;;;;174.65;62.85;;;;;;;-3.38;77.09;99388.67;1684918;84;27402;-66
2021/12/13 06:26:02;;;;;;;193.13;71.47;;;;;;;-3.41;76.99;99386.73;1685099;84;25599;-63
2021/12/13 06:28:37;;;;;;;140.97;55.25;;;;;;;-3.35;77.21;99389.60;1681501;85;25760;-61
2021/12/13 06:31:08;;;;;;;145.05;51.40;;;;;;;-3.33;77.03;99389.73;1685381;84;25832;-61
2021/12/13 06:34:00;;;;;;;149.90;53.05;;;;;;;-3.30;77.18;99383.97;1685145;84;25762;-62
2021/12/13 06:36:43;;;;;;;135.88;46.70;;;;;;;-3.24;77.09;99380.13;1685127;85;29589;-61
2021/12/13 06:39:14;;;;;;;140.85;51.00;;;;;;;-3.23;76.84;99385.30;1685249;84;26115;-60
2021/12/13 06:41:48;;;;;;;145.68;53.58;;;;;;;-3.20;76.82;99394.80;1685666;84;25694;-60
2021/12/13 06:44:29;;;;;;;121.42;45.50;;;;;;;-3.16;77.02;99394.70;1684797;84;26350;-62
2021/12/13 06:47:10;;;;;;;133.97;48.27;;;;;;;-3.11;76.69;99398.91;1685778;84;25586;-60
2021/12/13 06:49:40;;;;;;;136.03;49.63;;;;;;;-3.12;76.73;99398.61;1685727;84;27381;-61
2021/12/13 06:52:18;;;;;;;135.25;50.98;;;;;;;-3.07;76.77;99397.48;1685138;85;25705;-60
2021/12/13 06:55:05;;;;;;;146.13;51.70;;;;;;;-2.97;76.90;99406.45;1685600;84;25882;-60
2021/12/13 06:57:39;;;;;;;144.47;51.13;;;;;;;-2.97;76.46;99406.45;1685397;84;26140;-60
2021/12/13 07:00:17;;;;;;;137.52;52.50;;;;;;;-2.87;76.86;99402.53;1685677;84;25596;-61
2021/12/13 07:03:01;;;;;;;141.43;51.20;;;;;;;-2.78;76.40;99401.30;1685081;84;29461;-60
2021/12/13 07:05:41;;;;;;;134.57;50.70;;;;;;;-2.71;76.37;99402.11;1685520;85;25486;-61
2021/12/13 07:08:25;;;;;;;122.77;44.87;;;;;;;-2.58;76.44;99403.97;1685443;85;25669;-61
2021/12/13 07:11:02;;;;;;;119.25;44.75;;;;;;;-2.47;76.47;99403.02;1685659;85;25694;-61
2021/12/13 07:13:39;;;;;;;122.42;43.55;;;;;;;-2.41;76.11;99400.84;1685669;84;25737;-60
2021/12/13 07:16:21;;;;;;;126.42;46.48;;;;;;;-2.38;75.94;99396.91;1685290;84;27322;-60
2021/12/13 07:19:06;;;;;;;128.65;42.85;;;;;;;-2.31;76.38;99402.56;1685251;85;25658;-61
2021/12/13 07:21:44;;;;;;;138.25;46.83;;;;;;;-2.25;75.88;99404.92;1694470;83;25697;-65
2021/12/13 07:24:44;;;;;;;131.40;44.38;;;;;;;-2.13;75.89;99412.34;1697928;84;25765;-64
2021/12/13 07:27:22;;;;;;;111.77;41.00;;;;;;;-2.08;76.06;99419.23;1696552;84;25508;-62
2021/12/13 07:29:56;;;;;;;113.20;40.98;;;;;;;-1.96;75.91;99431.51;1698157;84;27281;-64
2021/12/13 07:32:37;;;;;;;108.07;41.48;;;;;;;-1.91;75.75;99434.37;1697951;84;25752;-63
2021/12/13 07:35:17;;;;;;;121.62;44.90;;;;;;;-1.92;75.94;99433.56;1697205;84;25632;-64
2021/12/13 07:37:57;;;;;;;110.47;41.53;;;;;;;-1.90;75.64;99436.84;1698147;84;25752;-61
2021/12/13 07:40:32;;;;;;;108.83;41.70;;;;;;;-1.86;75.23;99438.59;1698085;84;25733;-66
2021/12/13 07:43:15;;;;;;;109.37;42.48;;;;;;;-1.81;75.10;99438.77;1697739;84;27526;-65
2021/12/13 07:46:12;;;;;;;114.75;44.27;;;;;;;-1.75;75.14;99443.83;1697950;84;26319;-63
2021/12/13 07:48:47;;;;;;;133.80;52.20;;;;;;;-1.65;75.10;99441.51;1696708;84;25625;-67
2021/12/13 07:51:20;;;;;;;110.25;40.80;;;;;;;-1.49;75.20;99451.47;1698083;84;25727;-64
2021/12/13 07:54:01;;;;;;;209.60;71.90;;;;;;;-1.39;75.02;99453.17;1696694;84;25447;-63
2021/12/13 07:56:51;;;;;;;220.82;72.67;;;;;;;-1.33;74.90;99450.13;1697999;84;27410;-66
2021/12/13 07:59:29;;;;;;;104.80;41.10;;;;;;;-1.32;74.33;99449.63;1697681;84;25594;-61
2021/12/13 08:02:05;;;;;;;121.33;44.27;;;;;;;-1.27;74.20;99442.55;1697970;84;25697;-61
2021/12/13 08:05:00;;;;;;;105.97;38.33;;;;;;;-1.24;74.47;99454.73;1698062;84;26416;-60
2021/12/13 08:07:32;;;;;;;114.88;41.95;;;;;;;-1.23;73.96;99462.29;1697157;84;25420;-62
2021/12/13 08:10:13;;;;;;;162.47;52.75;;;;;;;-1.17;74.50;99468.98;1695525;84;27354;-62
2021/12/13 08:12:44;;;;;;;119.25;43.87;;;;;;;-1.11;74.43;99472.67;1697716;84;25399;-60
2021/12/13 08:15:19;;;;;;;128.55;43.10;;;;;;;-1.01;74.38;99480.25;1698016;84;25747;-61
2021/12/13 08:17:54;;;;;;;103.78;38.33;;;;;;;-0.90;74.43;99480.91;1681074;84;26409;-61
2021/12/13 08:20:31;;;;;;;111.77;41.15;;;;;;;-0.84;73.97;99483.25;1698107;84;25725;-61
2021/12/13 08:23:00;;;;;;;185.52;64.40;;;;;;;-1.05;73.74;99481.22;1675921;85;27551;-61
2021/12/13 08:25:32;;;;;;;192.10;66.70;;;;;;;-1.19;74.67;99480.98;1685345;84;25807;-61
2021/12/13 08:28:06;;;;;;;208.10;72.65;;;;;;;-1.21;74.82;99485.77;1685643;85;25689;-63
2021/12/13 08:30:50;;;;;;;196.37;70.47;;;;;;;-1.14;74.96;99485.20;1685435;84;25602;-62
2021/12/13 08:33:24;;;;;;;192.00;68.15;;;;;;;-1.09;74.67;99488.09;1685748;84;25700;-60
2021/12/13 08:36:13;;;;;;;202.87;68.95;;;;;;;-1.08;74.53;99496.96;1684377;84;27571;-60
2021/12/13 08:39:00;;;;;;;199.68;69.45;;;;;;;-1.11;74.32;99503.61;1685639;84;25938;-60
2021/12/13 08:41:44;;;;;;;195.18;70.20;;;;;;;-1.10;74.31;99503.91;1685490;84;25516;-64
2021/12/13 08:44:22;;;;;;;194.40;70.03;;;;;;;-1.14;74.52;99512.11;1685025;84;26430;-65
2021/12/13 08:46:57;;;;;;;222.80;75.35;;;;;;;-1.17;74.67;99509.84;1685749;85;25764;-65
2021/12/13 08:49:34;;;;;;;199.72;70.32;;;;;;;-1.11;74.94;99517.06;1685463;84;27437;-66
2021/12/13 08:52:28;;;;;;;218.07;77.65;;;;;;;-1.04;74.50;99518.34;1685169;85;25734;-66
2021/12/13 08:55:15;;;;;;;218.52;77.20;;;;;;;-1.02;74.48;99517.62;1685309;85;25417;-66
2021/12/13 08:58:11;;;;;;;205.22;76.00;;;;;;;-0.92;74.58;99513.13;1681799;85;25694;-65
2021/12/13 09:00:59;;;;;;;218.17;74.45;;;;;;;-0.89;74.04;99515.39;1685157;84;25694;-65
2021/12/13 09:03:43;;;;;;;199.62;74.12;;;;;;;-0.82;74.36;99513.47;1678564;85;27562;-65
2021/12/13 09:06:27;;;;;;;194.10;70.75;;;;;;;-0.78;74.27;99510.64;1685458;84;25673;-65
2021/12/13 09:09:11;;;;;;;187.20;67.62;;;;;;;-0.65;74.16;99512.94;1685182;85;25470;-66
2021/12/13 09:12:04;;;;;;;127.78;47.00;;;;;;;-0.54;74.28;99516.29;1685600;84;25798;-66
2021/12/13 09:14:39;;;;;;;131.52;50.30;;;;;;;-0.44;73.40;99511.74;1684872;84;25672;-61
2021/12/13 09:17:25;;;;;;;133.63;47.80;;;;;;;-0.42;73.44;99503.45;1685486;84;28304;-62
2021/12/13 09:20:18;;;;;;;138.05;50.98;;;;;;;-0.39;73.07;99502.49;1685196;84;25688;-63
2021/12/13 09:22:49;;;;;;;125.90;50.00;;;;;;;-0.36;73.16;99496.34;1706534;83;25657;-64
2021/12/13 09:25:30;;;;;;;129.90;48.92;;;;;;;-0.28;73.61;99496.08;1712470;83;25769;-63
2021/12/13 09:28:02;;;;;;;137.60;48.48;;;;;;;-0.15;73.61;99492.42;1713511;83;25706;-63
2021/12/13 09:30:43;;;;;;;134.15;50.70;;;;;;;-0.11;72.46;99500.89;1713150;83;27427;-64
2021/12/13 09:33:22;;;;;;;182.88;62.40;;;;;;;-0.10;72.72;99495.28;1651621;86;25869;-60
2021/12/13 09:36:08;;;;;;;207.35;65.25;;;;;;;-0.06;72.67;99488.39;1651739;86;25579;-62
2021/12/13 09:39:04;;;;;;;171.00;57.93;;;;;;;0.06;73.05;99489.82;1651852;86;25866;-61
2021/12/13 09:41:40;;;;;;;185.80;63.87;;;;;;;0.23;72.97;99490.60;1651533;86;26383;-61
2021/12/13 09:44:16;;;;;;;136.68;53.52;;;;;;;0.42;72.98;99486.53;1651391;86;27289;-62
2021/12/13 09:47:06;;;;;;;142.35;52.23;;;;;;;0.55;72.56;99482.31;1651851;86;25772;-62
2021/12/13 09:49:45;;;;;;;107.00;44.55;;;;;;;0.65;72.44;99477.75;1652063;86;25718;-65
2021/12/13 09:52:20;;;;;;;174.62;65.28;;;;;;;0.75;71.89;99478.56;1651695;86;25879;-66
2021/12/13 09:54:55;;;;;;;178.62;63.92;;;;;;;0.82;72.06;99479.29;1650104;86;25719;-61
2021/12/13 09:57:29;;;;;;;149.90;59.50;;;;;;;0.95;72.15;99473.41;1651970;86;28324;-66
2021/12/13 09:59:58;;;;;;;163.50;64.50;;;;;;;1.10;71.96;99471.63;1651709;86;25504;-62
2021/12/13 10:02:35;;;;;;;143.95;55.65;;;;;;;1.22;71.73;99471.66;1651905;86;25769;-66
2021/12/13 10:05:09;;;;;;;175.40;64.92;;;;;;;1.33;71.45;99476.79;1651918;86;26112;-67
2021/12/13 10:07:39;;;;;;;133.40;54.30;;;;;;;1.50;71.46;99478.28;1651937;86;25750;-65
2021/12/13 10:10:20;;;;;;;158.05;61.75;;;;;;;1.62;71.46;99483.15;1675542;83;28003;-66
2021/12/13 10:12:55;;;;;;;152.68;59.85;;;;;;;1.73;71.28;99473.95;1713759;83;29793;-65
2021/12/13 10:15:36;;;;;;;168.40;64.30;;;;;;;1.78;71.32;99484.06;1713449;83;25416;-67
2021/12/13 10:18:11;;;;;;;149.65;60.05;;;;;;;1.86;71.50;99479.12;1713667;83;26204;-66
2021/12/13 10:20:45;;;;;;;180.97;69.17;;;;;;;1.92;71.00;99484.11;1713620;83;25590;-67
2021/12/13 10:23:17;;;;;;;131.87;52.85;;;;;;;1.94;71.26;99477.11;1712438;83;27493;-67
2021/12/13 10:25:48;;;;;;;143.28;56.45;;;;;;;1.98;70.68;99481.81;1713632;83;25701;-66
2021/12/13 10:28:20;;;;;;;152.17;57.48;;;;;;;2.07;70.85;99481.47;1713541;83;25685;-67
2021/12/13 10:30:52;;;;;;;137.28;57.00;;;;;;;2.23;71.12;99478.55;1712927;83;26374;-66
2021/12/13 10:33:22;;;;;;;152.38;61.20;;;;;;;2.29;70.69;99477.59;1713464;83;25598;-64
2021/12/13 10:35:52;;;;;;;156.67;60.93;;;;;;;2.48;70.76;99474.73;1713340;83;27485;-67
2021/12/13 10:38:29;;;;;;;122.78;53.98;;;;;;;2.64;70.36;99467.73;1712982;83;25691;-63
2021/12/13 10:41:08;;;;;;;123.67;51.92;;;;;;;2.69;69.62;99473.77;1709440;83;25740;-62
2021/12/13 10:43:41;;;;;;;126.02;53.52;;;;;;;2.75;69.63;99475.52;1712586;83;25900;-62
2021/12/13 10:46:19;;;;;;;141.82;56.55;;;;;;;2.87;69.95;99472.75;1713313;82;25471;-62
2021/12/13 10:48:51;;;;;;;144.17;56.92;;;;;;;2.92;69.88;99472.86;1713287;83;28766;-63
2021/12/13 10:51:29;;;;;;;126.50;53.58;;;;;;;3.01;69.79;99471.41;1712917;83;25415;-62
2021/12/13 10:53:59;;;;;;;131.87;55.90;;;;;;;3.06;68.71;99478.80;1713573;83;25757;-62
2021/12/13 10:56:34;;;;;;;142.05;58.13;;;;;;;2.90;68.63;99472.27;1713569;83;27686;-62
2021/12/13 10:59:06;;;;;;;142.77;57.20;;;;;;;2.87;69.52;99476.30;1712971;83;25573;-62
2021/12/13 11:01:40;;;;;;;137.37;58.17;;;;;;;2.85;68.81;99478.41;1713606;83;28087;-63
2021/12/13 11:04:12;;;;;;;140.88;59.45;;;;;;;2.88;69.52;99475.22;1713333;82;25934;-64
2021/12/13 11:06:43;;;;;;;138.47;60.92;;;;;;;2.98;69.86;99477.83;1713357;83;25705;-62
2021/12/13 11:09:16;;;;;;;129.80;56.35;;;;;;;3.09;69.74;99481.02;1713498;83;35049;-63
2021/12/13 11:12:03;;;;;;;118.77;50.48;;;;;;;3.13;68.90;99478.63;1713556;83;25575;-62
2021/12/13 11:14:49;;;;;;;122.05;48.25;;;;;;;2.98;69.15;99469.19;1712879;83;25898;-62
2021/12/13 11:17:21;;;;;;;102.72;45.83;;;;;;;2.84;69.51;99474.59;1631851;86;25468;-62
2021/12/13 11:19:52;;;;;;;108.15;45.98;;;;;;;2.73;69.78;99473.05;1632017;86;25680;-62
2021/12/13 11:22:30;;;;;;;110.70;47.78;;;;;;;2.68;70.17;99477.55;1631717;87;25808;-67
2021/12/13 11:25:02;;;;;;;111.95;49.75;;;;;;;2.59;70.44;99479.83;1631365;88;25643;-67
2021/12/13 11:27:32;;;;;;;117.85;50.98;;;;;;;2.59;70.42;99477.12;1631321;88;27619;-67
2021/12/13 11:30:05;;;;;;;127.37;56.50;;;;;;;2.57;70.37;99477.88;1632102;87;26407;-65
2021/12/13 11:33:01;;;;;;;135.72;55.88;;;;;;;2.56;70.88;99477.59;1631563;87;25809;-68
2021/12/13 11:36:10;;;;;;;132.67;58.73;;;;;;;2.60;70.91;99480.11;1631922;86;26539;-67
2021/12/13 11:39:22;;;;;;;125.92;53.40;;;;;;;2.62;70.67;99477.44;1631144;88;25651;-65
2021/12/13 11:42:06;;;;;;;134.37;57.93;;;;;;;2.49;70.79;99475.02;1631331;87;27436;-65
2021/12/13 11:44:55;;;;;;;157.35;63.98;;;;;;;2.48;71.61;99467.42;1631464;87;25842;-66
2021/12/13 11:47:49;;;;;;;158.90;64.87;;;;;;;2.53;71.37;99466.70;1631547;87;25763;-67
2021/12/13 11:50:26;;;;;;;156.63;65.40;;;;;;;2.58;71.80;99467.33;1631657;87;25728;-65
2021/12/13 11:53:44;;;;;;;143.82;61.50;;;;;;;2.63;71.71;99468.28;1629088;87;25666;-67
2021/12/13 11:56:48;;;;;;;124.97;54.27;;;;;;;2.59;71.76;99470.35;1631514;88;28029;-67
2021/12/13 12:00:01;;;;;;;118.45;51.02;;;;;;;2.50;72.04;99470.72;1578385;90;25795;-67
2021/12/13 12:02:36;;;;;;;108.42;48.78;;;;;;;2.43;72.30;99465.98;1578413;90;25796;-62
2021/12/13 12:05:47;;;;;;;111.68;51.92;;;;;;;2.43;72.57;99461.92;1578067;90;25772;-68